createdAt,value
2023-04-20T00:00:50.440Z,100098.95
2023-04-20T00:03:22.138Z,100093.80
2023-04-20T00:05:50.216Z,100096.45
2023-04-20T00:08:18.848Z,100093.51
2023-04-20T00:10:47.012Z,100093.80
2023-04-20T00:13:14.992Z,100088.60
2023-04-20T00:15:42.933Z,100090.45
2023-04-20T00:18:11.521Z,100093.45
2023-04-20T00:20:39.453Z,100094.52
2023-04-20T00:23:07.810Z,100087.52
2023-04-20T00:25:36.398Z,100089.88
2023-04-20T00:28:05.214Z,100090.10
2023-04-20T00:30:34.959Z,100082.77
2023-04-20T00:33:03.124Z,100081.12
2023-04-20T00:35:31.212Z,100081.03
2023-04-20T00:37:59.263Z,100076.96
2023-04-20T00:40:27.188Z,100076.09
2023-04-20T00:42:55.073Z,100072.37
2023-04-20T00:45:24.598Z,100073.94
2023-04-20T00:47:52.531Z,100070.86
2023-04-20T00:50:21.877Z,100066.08
2023-04-20T00:52:49.831Z,100064.55
2023-04-20T00:55:19.237Z,100062.56
2023-04-20T00:57:47.102Z,100056.86
2023-04-20T01:00:15.188Z,100054.77
2023-04-20T01:02:43.943Z,100051.80
2023-04-20T01:05:12.375Z,100055.20
2023-04-20T01:07:41.029Z,100050.84
2023-04-20T01:10:09.310Z,100052.50
2023-04-20T01:12:40.541Z,100051.39
2023-04-20T01:15:09.063Z,100050.52
2023-04-20T01:17:39.748Z,100048.72
2023-04-20T01:20:09.378Z,100044.66
2023-04-20T01:22:50.283Z,100047.50
2023-04-20T01:25:18.372Z,100043.68
2023-04-20T01:27:47.815Z,100044.13
2023-04-20T01:30:15.813Z,100039.39
2023-04-20T01:32:43.845Z,100037.73
2023-04-20T01:35:12.244Z,100035.48
2023-04-20T01:37:40.608Z,100036.80
2023-04-20T01:40:09.947Z,100044.16
2023-04-20T01:42:38.309Z,100040.44
2023-04-20T01:45:07.216Z,100042.90
2023-04-20T01:47:36.724Z,100045.01
2023-04-20T01:50:05.102Z,100038.09
2023-04-20T01:52:33.063Z,100038.12
2023-04-20T01:55:01.052Z,100032.95
2023-04-20T01:57:29.094Z,100024.58
2023-04-20T01:59:57.046Z,100023.66
2023-04-20T02:02:25.003Z,100028.98
2023-04-20T02:04:53.979Z,100024.26
2023-04-20T02:07:21.997Z,100021.89
2023-04-20T02:09:49.945Z,100018.27
2023-04-20T02:12:17.889Z,100019.14
2023-04-20T02:14:45.711Z,100017.45
2023-04-20T02:17:15.645Z,100016.41
2023-04-20T02:19:43.867Z,100018.39
2023-04-20T02:22:11.675Z,100016.19
2023-04-20T02:24:39.497Z,100014.35
2023-04-20T02:27:07.514Z,100016.61
2023-04-20T02:29:35.614Z,100012.98
2023-04-20T02:32:03.819Z,100009.43
2023-04-20T02:34:31.584Z,100006.55
2023-04-20T02:36:59.553Z,100006.52
2023-04-20T02:39:27.414Z,100005.05
2023-04-20T02:41:56.110Z,100001.62
2023-04-20T02:44:24.680Z,100003.42
2023-04-20T02:46:52.746Z,100000.48
2023-04-20T02:49:21.171Z,100001.46
2023-04-20T02:51:49.238Z,99995.11
2023-04-20T02:54:17.084Z,99995.27
2023-04-20T02:56:45.350Z,99989.86
2023-04-20T02:59:13.326Z,99987.39
2023-04-20T03:01:59.617Z,99991.13
2023-04-20T03:04:27.965Z,99990.45
2023-04-20T03:07:01.420Z,99988.57
2023-04-20T03:09:31.265Z,99989.70
2023-04-20T03:11:59.072Z,99995.17
2023-04-20T03:14:56.081Z,99995.23
2023-04-20T03:17:30.770Z,99995.55
2023-04-20T03:19:58.711Z,99993.77
2023-04-20T03:22:26.806Z,99995.33
2023-04-20T03:24:57.291Z,99991.11
2023-04-20T03:27:40.416Z,99990.30
2023-04-20T03:30:12.420Z,99990.78
2023-04-20T03:32:42.043Z,99991.59
2023-04-20T03:35:10.397Z,99994.14
2023-04-20T03:37:38.402Z,99993.52
2023-04-20T03:40:08.700Z,99989.52
2023-04-20T03:42:37.679Z,99988.33
2023-04-20T03:45:06.790Z,99988.10
2023-04-20T03:47:35.165Z,99988.03
2023-04-20T03:50:03.263Z,99988.52
2023-04-20T03:52:31.459Z,99992.11
2023-04-20T03:55:01.898Z,99988.77
2023-04-20T03:57:29.896Z,99985.94
2023-04-20T03:59:57.784Z,99987.06
2023-04-20T04:02:27.248Z,99984.70
2023-04-20T04:04:55.688Z,99982.51
2023-04-20T04:07:24.174Z,99981.20
2023-04-20T04:09:52.143Z,99982.59
2023-04-20T04:12:20.023Z,99983.64
2023-04-20T04:14:48.509Z,99985.21
2023-04-20T04:17:17.378Z,99981.30
2023-04-20T04:21:13.536Z,99982.59
2023-04-20T04:23:43.816Z,99980.44
2023-04-20T04:26:24.818Z,99979.71
2023-04-20T04:28:53.539Z,99983.66
2023-04-20T04:31:23.691Z,99985.79
2023-04-20T04:33:52.312Z,99989.20
2023-04-20T04:36:27.999Z,99989.52
2023-04-20T04:38:57.520Z,99989.33
2023-04-20T04:41:25.985Z,99991.13
2023-04-20T04:43:54.838Z,99990.19
2023-04-20T04:46:27.799Z,99987.44
2023-04-20T04:49:01.256Z,99993.10
2023-04-20T04:51:29.458Z,99990.95
2023-04-20T04:53:57.402Z,99988.91
2023-04-20T04:56:25.741Z,99988.03
2023-04-20T04:58:53.586Z,99987.59
2023-04-20T05:01:21.471Z,99987.56
2023-04-20T05:03:49.707Z,99986.89
2023-04-20T05:06:17.689Z,99992.80
2023-04-20T05:08:46.453Z,99994.67
2023-04-20T05:11:14.428Z,99991.17
2023-04-20T05:13:42.615Z,99986.39
2023-04-20T05:16:11.381Z,99987.94
2023-04-20T05:18:39.558Z,99983.73
2023-04-20T05:21:07.424Z,99985.86
2023-04-20T05:23:36.302Z,99985.79
2023-04-20T05:26:04.550Z,99978.06
2023-04-20T05:28:35.825Z,99984.48
2023-04-20T05:31:03.620Z,99984.38
2023-04-20T05:33:31.653Z,99986.73
2023-04-20T05:35:59.662Z,99987.63
2023-04-20T05:38:28.009Z,99989.35
2023-04-20T05:40:56.132Z,99993.43
2023-04-20T05:43:24.048Z,99997.52
2023-04-20T05:45:52.125Z,99997.30
2023-04-20T05:48:20.551Z,100001.48
2023-04-20T05:50:48.398Z,99998.79
2023-04-20T05:53:16.225Z,99996.60
2023-04-20T05:55:44.198Z,99999.54
2023-04-20T05:58:12.331Z,100006.40
2023-04-20T06:00:40.803Z,100008.69
2023-04-20T06:03:09.030Z,100006.98
2023-04-20T06:05:37.482Z,100005.41
2023-04-20T06:08:05.969Z,100003.51
2023-04-20T06:10:34.823Z,99997.88
2023-04-20T06:13:02.755Z,99999.98
2023-04-20T06:15:30.946Z,99998.21
2023-04-20T06:17:59.017Z,100001.27
2023-04-20T06:20:26.972Z,100002.64
2023-04-20T06:22:55.596Z,100001.44
2023-04-20T06:25:23.494Z,99998.13
2023-04-20T06:27:52.801Z,99992.02
2023-04-20T06:30:20.991Z,99995.14
2023-04-20T06:32:49.196Z,99998.01
2023-04-20T06:35:17.150Z,99997.35
2023-04-20T06:37:45.623Z,99988.59
2023-04-20T06:40:16.153Z,99991.30
2023-04-20T06:42:45.781Z,99991.13
2023-04-20T06:45:13.800Z,99977.40
2023-04-20T06:47:41.824Z,99978.51
2023-04-20T06:50:10.217Z,99973.89
2023-04-20T06:52:39.007Z,99969.02
2023-04-20T06:55:07.470Z,99961.70
2023-04-20T06:57:35.552Z,99961.92
2023-04-20T07:00:03.973Z,99964.95
2023-04-20T07:02:50.793Z,99968.49
2023-04-20T07:05:19.087Z,99964.42
2023-04-20T07:07:47.200Z,99956.48
2023-04-20T07:10:15.530Z,99954.95
2023-04-20T07:12:44.119Z,99956.74
2023-04-20T07:15:12.794Z,99954.39
2023-04-20T07:17:40.870Z,99951.09
2023-04-20T07:20:09.582Z,99955.27
2023-04-20T07:22:38.444Z,99952.73
2023-04-20T07:25:07.762Z,99952.19
2023-04-20T07:27:37.561Z,99953.66
2023-04-20T07:30:07.223Z,99955.04
2023-04-20T07:32:36.098Z,99951.34
2023-04-20T07:35:04.662Z,99950.36
2023-04-20T07:37:33.335Z,99956.09
2023-04-20T07:40:02.033Z,99949.16
2023-04-20T07:42:31.579Z,99948.60
2023-04-20T07:44:59.499Z,99944.61
2023-04-20T07:47:27.720Z,99947.52
2023-04-20T07:49:57.576Z,99943.23
2023-04-20T07:52:25.992Z,99941.96
2023-04-20T07:54:53.940Z,99939.75
2023-04-20T07:57:21.819Z,99944.40
2023-04-20T07:59:49.756Z,99934.42
2023-04-20T08:02:17.943Z,99940.18
2023-04-20T08:04:46.679Z,99941.14
2023-04-20T08:07:15.139Z,99940.88
2023-04-20T08:09:43.199Z,99943.27
2023-04-20T08:12:12.267Z,99948.90
2023-04-20T08:14:41.311Z,99950.51
2023-04-20T08:17:09.375Z,99946.50
2023-04-20T08:19:37.491Z,99947.23
2023-04-20T08:22:05.768Z,99949.25
2023-04-20T08:24:34.445Z,99945.83
2023-04-20T08:27:02.353Z,99947.05
2023-04-20T08:29:30.930Z,99951.57
2023-04-20T08:31:58.903Z,99950.08
2023-04-20T08:34:27.199Z,99951.94
2023-04-20T08:36:55.651Z,99951.31
2023-04-20T08:39:24.482Z,99949.59
2023-04-20T08:41:55.561Z,99954.58
2023-04-20T08:44:24.478Z,99957.79
2023-04-20T08:46:52.352Z,99958.95
2023-04-20T08:49:21.217Z,99953.24
2023-04-20T08:51:49.413Z,99952.42
2023-04-20T08:54:17.866Z,99958.47
2023-04-20T08:56:47.145Z,99957.47
2023-04-20T08:59:16.365Z,99955.95
2023-04-20T09:01:44.689Z,99956.41
2023-04-20T09:04:27.018Z,99958.75
2023-04-20T09:06:55.897Z,99959.42
2023-04-20T09:09:25.279Z,99957.86
2023-04-20T09:12:07.656Z,99960.82
2023-04-20T09:14:47.085Z,99957.95
2023-04-20T09:17:16.033Z,99961.06
2023-04-20T09:19:44.724Z,99962.50
2023-04-20T09:22:12.745Z,99961.55
2023-04-20T09:24:41.478Z,99961.39
2023-04-20T09:27:22.648Z,99960.58
2023-04-20T09:30:00.418Z,99958.30
2023-04-20T09:32:29.595Z,99955.70
2023-04-20T09:34:57.629Z,99958.59
2023-04-20T09:37:25.791Z,99956.01
2023-04-20T09:39:55.981Z,99956.06
2023-04-20T09:42:23.792Z,99954.02
2023-04-20T09:44:51.543Z,99949.88
2023-04-20T09:47:19.683Z,99948.41
2023-04-20T09:49:47.798Z,99953.61
2023-04-20T09:52:17.342Z,99955.45
2023-04-20T09:54:45.452Z,99962.26
2023-04-20T09:57:14.045Z,99952.90
2023-04-20T09:59:46.790Z,99955.33
2023-04-20T10:02:15.022Z,99953.92
2023-04-20T10:04:58.717Z,99953.42
2023-04-20T10:07:31.853Z,99955.11
2023-04-20T10:10:11.334Z,99951.33
2023-04-20T10:12:54.615Z,99954.70
2023-04-20T10:15:24.278Z,99954.85
2023-04-20T10:17:53.491Z,99954.38
2023-04-20T10:20:26.406Z,99950.10
2023-04-20T10:23:06.743Z,99955.48
2023-04-20T10:25:34.509Z,99952.84
2023-04-20T10:28:05.492Z,99958.27
2023-04-20T10:30:33.588Z,99959.46
2023-04-20T10:33:03.373Z,99959.98
2023-04-20T10:35:51.224Z,99958.14
2023-04-20T10:38:30.480Z,99962.16
2023-04-20T10:41:12.134Z,99961.48
2023-04-20T10:43:43.351Z,99956.75
2023-04-20T10:46:18.287Z,99953.27
2023-04-20T10:48:50.380Z,99951.54
2023-04-20T10:51:18.694Z,99952.15
2023-04-20T10:53:46.510Z,99953.23
2023-04-20T10:56:14.421Z,99955.86
2023-04-20T10:58:43.026Z,99958.52
2023-04-20T11:01:11.177Z,99957.81
2023-04-20T11:03:39.149Z,99955.09
2023-04-20T11:06:07.732Z,99959.08
2023-04-20T11:08:43.328Z,99959.48
2023-04-20T11:11:21.316Z,99963.13
2023-04-20T11:13:49.198Z,99964.05
2023-04-20T11:16:18.292Z,99960.84
2023-04-20T11:18:52.099Z,99966.58
2023-04-20T11:21:21.880Z,99966.81
2023-04-20T11:23:50.293Z,99975.06
2023-04-20T11:26:18.869Z,99976.55
2023-04-20T11:28:56.477Z,99994.95
2023-04-20T11:31:26.365Z,99994.08
2023-04-20T11:33:54.377Z,99997.83
2023-04-20T11:36:23.589Z,99997.29
2023-04-20T11:38:51.490Z,100005.30
2023-04-20T11:41:19.473Z,100003.83
2023-04-20T11:43:47.403Z,99996.64
2023-04-20T11:46:17.156Z,99996.15
2023-04-20T11:48:45.927Z,99991.46
2023-04-20T11:51:14.323Z,99986.98
2023-04-20T11:53:42.746Z,99990.59
2023-04-20T11:56:10.815Z,99985.70
2023-04-20T11:58:38.674Z,99986.31
2023-04-20T12:01:06.864Z,99984.64
2023-04-20T12:03:35.119Z,99977.34
2023-04-20T12:06:04.872Z,99978.33
2023-04-20T12:08:33.129Z,99976.85
2023-04-20T12:11:00.985Z,99976.05
2023-04-20T12:13:29.060Z,99972.09
2023-04-20T12:15:56.960Z,99971.10
2023-04-20T12:18:25.198Z,99968.70
2023-04-20T12:20:53.268Z,99973.86
2023-04-20T12:23:21.197Z,99971.36
2023-04-20T12:25:49.622Z,99970.27
2023-04-20T12:28:17.834Z,99968.89
2023-04-20T12:30:46.205Z,99967.05
2023-04-20T12:33:14.373Z,99966.31
2023-04-20T12:35:42.438Z,99961.82
2023-04-20T12:38:11.769Z,99958.38
2023-04-20T12:40:41.134Z,99953.19
2023-04-20T12:43:09.220Z,99957.39
2023-04-20T12:45:37.119Z,99955.92
2023-04-20T12:48:05.204Z,99958.68
2023-04-20T12:50:33.657Z,99958.11
2023-04-20T12:53:02.573Z,99960.37
2023-04-20T12:55:30.774Z,99957.64
2023-04-20T12:57:58.846Z,99960.18
2023-04-20T13:00:26.795Z,99953.92
2023-04-20T13:02:54.892Z,99950.98
2023-04-20T13:05:22.976Z,99944.31
2023-04-20T13:07:51.645Z,99941.42
2023-04-20T13:10:19.490Z,99941.78
2023-04-20T13:12:48.235Z,99941.63
2023-04-20T13:15:31.807Z,99941.21
2023-04-20T13:18:06.651Z,99946.56
2023-04-20T13:20:34.860Z,99945.50
2023-04-20T13:23:03.630Z,99950.67
2023-04-20T13:25:34.653Z,99954.80
2023-04-20T13:28:03.105Z,99955.21
2023-04-20T13:30:30.993Z,99961.14
2023-04-20T13:32:58.951Z,99961.23
2023-04-20T13:35:26.826Z,99964.70
2023-04-20T13:37:54.818Z,99965.13
2023-04-20T13:40:22.834Z,99966.95
2023-04-20T13:42:50.838Z,99973.88
2023-04-20T13:45:18.795Z,99976.73
2023-04-20T13:47:46.947Z,99975.95
2023-04-20T13:50:14.834Z,99971.95
2023-04-20T13:52:42.698Z,99967.03
2023-04-20T13:55:11.256Z,99962.48
2023-04-20T13:57:39.553Z,99961.46
2023-04-20T14:00:08.342Z,99959.07
2023-04-20T14:02:36.887Z,99960.09
2023-04-20T14:05:06.417Z,99956.79
2023-04-20T14:07:34.470Z,99955.95
2023-04-20T14:10:02.816Z,99956.66
2023-04-20T14:12:33.690Z,99958.00
2023-04-20T14:15:02.505Z,99955.74
2023-04-20T14:17:30.736Z,99952.54
2023-04-20T14:19:59.496Z,99951.01
2023-04-20T14:22:32.188Z,99948.73
2023-04-20T14:25:00.496Z,99963.52
2023-04-20T14:27:28.387Z,99955.66
2023-04-20T14:29:56.430Z,99952.31
2023-04-20T14:32:24.385Z,99959.27
2023-04-20T14:34:52.316Z,99969.30
2023-04-20T14:37:20.303Z,99962.00
2023-04-20T14:39:48.655Z,99958.00
2023-04-20T14:42:16.513Z,99954.34
2023-04-20T14:44:44.487Z,99956.02
2023-04-20T14:47:12.347Z,99957.45
2023-04-20T14:49:40.236Z,99956.42
2023-04-20T14:52:08.097Z,99952.34
2023-04-20T14:54:36.677Z,99953.41
2023-04-20T14:57:04.605Z,99955.33
2023-04-20T14:59:33.909Z,99958.96
2023-04-20T15:02:03.513Z,99955.92
2023-04-20T15:04:32.557Z,99945.61
2023-04-20T15:07:00.761Z,99940.70
2023-04-20T15:09:28.937Z,99942.66
2023-04-20T15:11:57.170Z,99954.67
2023-04-20T15:14:25.194Z,99950.06
2023-04-20T15:16:53.256Z,99945.27
2023-04-20T15:19:22.717Z,99949.73
2023-04-20T15:21:50.625Z,99952.90
2023-04-20T15:24:18.754Z,99955.52
2023-04-20T15:26:46.999Z,99956.43
2023-04-20T15:29:14.990Z,99957.77
2023-04-20T15:31:45.593Z,99948.95
2023-04-20T15:34:15.596Z,99950.55
2023-04-20T15:36:43.764Z,99946.08
2023-04-20T15:39:12.517Z,99943.65
2023-04-20T15:41:40.459Z,99943.41
2023-04-20T15:44:08.302Z,99948.30
2023-04-20T15:46:37.601Z,99948.71
2023-04-20T15:49:05.561Z,99947.04
2023-04-20T15:51:34.429Z,99939.23
2023-04-20T15:54:02.264Z,99938.78
2023-04-20T15:56:31.097Z,99939.34
2023-04-20T15:58:58.981Z,99939.59
2023-04-20T16:01:26.957Z,99935.48
2023-04-20T16:03:55.163Z,99936.73
2023-04-20T16:06:24.203Z,99942.21
2023-04-20T16:08:54.014Z,99939.70
2023-04-20T16:11:22.578Z,99943.04
2023-04-20T16:13:50.591Z,99945.95
2023-04-20T16:16:18.946Z,99941.88
2023-04-20T16:18:48.185Z,99945.02
2023-04-20T16:21:16.175Z,99939.82
2023-04-20T16:23:44.153Z,99938.81
2023-04-20T16:26:11.981Z,99944.25
2023-04-20T16:28:39.841Z,99940.77
2023-04-20T16:31:07.753Z,99944.80
2023-04-20T16:33:36.607Z,99944.45
2023-04-20T16:36:05.148Z,99943.35
2023-04-20T16:39:13.352Z,99943.30
2023-04-20T16:41:41.369Z,99941.40
2023-04-20T16:44:09.450Z,99942.66
2023-04-20T16:46:37.709Z,99944.25
2023-04-20T16:49:05.589Z,99944.17
2023-04-20T16:51:33.801Z,99941.16
2023-04-20T16:54:01.894Z,99942.11
2023-04-20T16:56:29.865Z,99947.08
2023-04-20T16:58:58.260Z,99946.35
2023-04-20T17:01:26.117Z,99943.05
2023-04-20T17:03:54.218Z,99939.33
2023-04-20T17:06:22.346Z,99934.42
2023-04-20T17:08:50.447Z,99941.02
2023-04-20T17:11:19.629Z,99944.20
2023-04-20T17:13:47.701Z,99943.04
2023-04-20T17:16:16.490Z,99943.55
2023-04-20T17:18:44.980Z,99943.51
2023-04-20T17:21:12.932Z,99932.80
2023-04-20T17:23:41.284Z,99929.92
2023-04-20T17:26:09.179Z,99931.08
2023-04-20T17:28:37.017Z,99929.64
2023-04-20T17:31:04.824Z,99936.90
2023-04-20T17:33:32.768Z,99938.51
2023-04-20T17:36:01.356Z,99935.98
2023-04-20T17:38:29.249Z,99933.51
2023-04-20T17:40:57.158Z,99937.69
2023-04-20T17:43:25.102Z,99935.79
2023-04-20T17:45:53.066Z,99939.48
2023-04-20T17:48:20.959Z,99936.43
2023-04-20T17:50:49.737Z,99937.25
2023-04-20T17:53:17.686Z,99934.91
2023-04-20T17:55:45.886Z,99936.35
2023-04-20T17:58:13.808Z,99938.73
2023-04-20T18:00:43.070Z,99941.58
2023-04-20T18:03:11.232Z,99941.23
2023-04-20T18:05:39.313Z,99943.08
2023-04-20T18:08:07.417Z,99946.23
2023-04-20T18:10:35.787Z,99948.73
2023-04-20T18:13:03.561Z,99954.20
2023-04-20T18:15:31.460Z,99956.31
2023-04-20T18:17:59.546Z,99961.44
2023-04-20T18:20:27.534Z,99966.08
2023-04-20T18:22:55.518Z,99968.61
2023-04-20T18:25:23.478Z,99969.11
2023-04-20T18:27:51.373Z,99963.25
2023-04-20T18:30:19.209Z,99965.25
2023-04-20T18:32:47.177Z,99964.18
2023-04-20T18:35:15.721Z,99960.96
2023-04-20T18:37:43.570Z,99969.41
2023-04-20T18:40:13.079Z,99976.23
2023-04-20T18:42:42.639Z,99976.39
2023-04-20T18:45:13.207Z,99970.98
2023-04-20T18:47:41.264Z,99970.33
2023-04-20T18:50:10.508Z,99976.45
2023-04-20T18:52:38.490Z,99970.98
2023-04-20T18:55:07.908Z,99964.33
2023-04-20T18:57:35.822Z,99962.36
2023-04-20T19:00:08.443Z,99962.91
2023-04-20T19:02:37.116Z,99976.09
2023-04-20T19:05:05.906Z,99984.73
2023-04-20T19:07:33.764Z,99988.63
2023-04-20T19:10:01.802Z,99994.46
2023-04-20T19:12:30.078Z,100003.16
2023-04-20T19:14:57.958Z,100014.55
2023-04-20T19:17:26.178Z,100018.05
2023-04-20T19:19:55.317Z,100015.33
2023-04-20T19:22:23.382Z,100016.91
2023-04-20T19:24:51.448Z,100014.00
2023-04-20T19:27:19.536Z,100013.92
2023-04-20T19:29:47.731Z,100005.52
2023-04-20T19:32:15.691Z,100009.52
2023-04-20T19:34:43.966Z,100006.28
2023-04-20T19:37:12.145Z,100014.92
2023-04-20T19:39:40.352Z,100015.94
2023-04-20T19:42:08.179Z,100012.59
2023-04-20T19:44:36.124Z,100012.64
2023-04-20T19:47:04.329Z,100013.23
2023-04-20T19:49:32.691Z,100008.20
2023-04-20T19:52:00.791Z,100010.47
2023-04-20T19:54:28.870Z,100014.19
2023-04-20T19:56:57.785Z,100013.59
2023-04-20T19:59:26.815Z,100012.38
2023-04-20T20:01:54.779Z,100017.58
2023-04-20T20:04:22.899Z,100016.25
2023-04-20T20:06:51.399Z,100016.76
2023-04-20T20:09:23.130Z,100015.31
2023-04-20T20:11:51.947Z,100010.65
2023-04-20T20:14:19.974Z,100000.41
2023-04-20T20:16:49.261Z,100000.84
2023-04-20T20:19:25.003Z,99995.80
2023-04-20T20:21:53.758Z,99992.81
2023-04-20T20:24:23.181Z,99996.51
2023-04-20T20:26:51.218Z,100007.16
2023-04-20T20:29:19.614Z,100012.64
2023-04-20T20:31:47.857Z,100011.21
2023-04-20T20:34:16.106Z,100006.88
2023-04-20T20:36:45.950Z,100005.29
2023-04-20T20:39:14.394Z,100001.53
2023-04-20T20:41:42.449Z,99993.30
2023-04-20T20:44:10.503Z,99998.36
2023-04-20T20:46:38.809Z,99993.35
2023-04-20T20:49:06.933Z,99991.87
2023-04-20T20:51:35.164Z,99990.94
2023-04-20T20:54:03.355Z,99991.16
2023-04-20T20:56:31.541Z,99989.44
2023-04-20T20:58:59.652Z,99992.08
2023-04-20T21:01:27.539Z,99993.63
2023-04-20T21:03:55.961Z,99988.58
2023-04-20T21:06:23.940Z,99987.65
2023-04-20T21:08:51.790Z,99980.73
2023-04-20T21:11:19.760Z,99984.86
2023-04-20T21:13:47.736Z,99984.45
2023-04-20T21:16:15.671Z,99982.92
2023-04-20T21:18:43.611Z,99982.95
2023-04-20T21:21:12.816Z,99988.64
2023-04-20T21:23:40.915Z,99991.39
2023-04-20T21:26:09.164Z,99984.08
2023-04-20T21:28:37.121Z,99978.41
2023-04-20T21:31:05.168Z,99973.20
2023-04-20T21:33:36.095Z,99972.70
2023-04-20T21:36:04.337Z,99975.92
2023-04-20T21:38:33.823Z,99972.64
2023-04-20T21:41:01.751Z,99966.02
2023-04-20T21:43:29.762Z,99967.56
2023-04-20T21:45:57.691Z,99961.73
2023-04-20T21:48:25.803Z,99961.37
2023-04-20T21:50:53.725Z,99964.34
2023-04-20T21:53:21.701Z,99959.77
2023-04-20T21:55:49.670Z,99951.04
2023-04-20T21:58:18.715Z,99949.16
2023-04-20T22:00:46.829Z,99953.84
2023-04-20T22:03:14.830Z,99951.83
2023-04-20T22:05:43.173Z,99956.27
2023-04-20T22:08:11.683Z,99955.20
2023-04-20T22:10:40.128Z,99951.72
2023-04-20T22:13:08.088Z,99946.53
2023-04-20T22:15:36.330Z,99943.70
2023-04-20T22:18:05.641Z,99942.81
2023-04-20T22:20:33.787Z,99933.85
2023-04-20T22:23:01.889Z,99929.25
2023-04-20T22:25:29.946Z,99932.92
2023-04-20T22:27:58.080Z,99932.49
2023-04-20T22:30:26.037Z,99927.84
2023-04-20T22:32:54.111Z,99926.91
2023-04-20T22:35:22.461Z,99924.58
2023-04-20T22:37:50.534Z,99917.93
2023-04-20T22:40:18.727Z,99913.50
2023-04-20T22:42:46.690Z,99911.41
2023-04-20T22:45:14.913Z,99907.95
2023-04-20T22:47:43.008Z,99907.06
2023-04-20T22:50:12.485Z,99905.75
2023-04-20T22:52:40.620Z,99904.59
2023-04-20T22:55:09.398Z,99904.39
2023-04-20T22:57:37.375Z,99901.45
2023-04-20T23:00:07.979Z,99897.45
2023-04-20T23:02:37.560Z,99898.52
2023-04-20T23:05:06.591Z,99895.05
2023-04-20T23:07:35.927Z,99893.42
2023-04-20T23:10:04.757Z,99894.04
2023-04-20T23:12:33.585Z,99891.23
2023-04-20T23:15:01.514Z,99888.08
2023-04-20T23:17:29.753Z,99888.77
2023-04-20T23:19:58.410Z,99887.89
2023-04-20T23:22:26.855Z,99884.27
2023-04-20T23:24:57.347Z,99881.15
2023-04-20T23:27:25.354Z,99883.41
2023-04-20T23:29:53.219Z,99884.09
2023-04-20T23:32:21.211Z,99887.39
2023-04-20T23:34:49.084Z,99887.84
2023-04-20T23:37:16.907Z,99888.50
2023-04-20T23:39:44.736Z,99891.58
2023-04-20T23:42:12.654Z,99894.38
2023-04-20T23:44:40.508Z,99897.33
2023-04-20T23:47:08.312Z,99901.11
2023-04-20T23:49:36.444Z,99901.80
2023-04-20T23:52:05.063Z,99906.71
2023-04-20T23:54:33.500Z,99902.86
2023-04-20T23:57:02.780Z,99905.02
2023-04-20T23:59:31.648Z,99903.89
